Time;durP1;ratioP1;P1;durP2;ratioP2;P2;SDS_P1;SDS_P2;PMS_P1;PMS_P2;Temp;Humidity;BMP_temperature;BMP_pressure;BME280_temperature;BME280_humidity;BME280_pressure;Samples;Min_cycle;Max_cycle;Signal;HPM_P1;HPM_P2
2023/01/20 05:01:15;;;;;;;15.73;11.50;;;;;;;5.52;94.04;99730.44;5605552;31;87846;-56
2023/01/20 05:04:18;;;;;;;15.05;10.57;;;;;;;5.52;94.04;99730.44;5577429;32;33406;-56
2023/01/20 05:07:20;;;;;;;14.57;10.20;;;;;;;4.81;85.55;99709.75;5562600;32;34155;-56
2023/01/20 05:10:23;;;;;;;14.95;11.10;;;;;;;4.79;82.37;99709.19;5569420;31;34223;-56
2023/01/20 05:13:25;;;;;;;13.00;9.80;;;;;;;5.03;84.23;99709.56;5583506;32;33620;-57
2023/01/20 05:16:30;;;;;;;15.18;10.88;;;;;;;4.96;78.73;99701.03;5583437;32;33513;-56
2023/01/20 05:19:32;;;;;;;15.57;10.25;;;;;;;5.48;100.00;99705.47;5580393;32;33996;-56
2023/01/20 05:22:35;;;;;;;13.05;9.65;;;;;;;5.35;78.08;99703.28;5574479;32;34277;-57
2023/01/20 05:25:37;;;;;;;12.63;9.90;;;;;;;5.22;78.96;99707.25;5583656;32;33257;-56
2023/01/20 05:28:43;;;;;;;12.82;9.70;;;;;;;5.19;78.68;99713.06;5581459;31;34244;-57
2023/01/20 05:31:45;;;;;;;13.27;9.55;;;;;;;5.06;79.33;99717.00;5583165;32;34324;-56
2023/01/20 05:34:47;;;;;;;14.70;10.43;;;;;;;5.48;80.66;99718.75;5583636;32;33707;-56
2023/01/20 05:37:53;;;;;;;12.88;9.30;;;;;;;5.45;77.37;99723.78;5583539;32;33276;-57
2023/01/20 05:41:03;;;;;;;15.65;9.30;;;;;;;5.23;79.17;99722.16;5582585;32;33921;-56
2023/01/20 05:44:05;;;;;;;13.57;9.82;;;;;;;5.45;79.40;99721.94;5583631;31;33626;-56
2023/01/20 05:47:08;;;;;;;13.05;9.65;;;;;;;5.26;86.32;99718.94;5582995;32;33726;-57
2023/01/20 05:50:10;;;;;;;13.73;9.02;;;;;;;5.65;95.01;99711.34;5583074;32;34233;-56
2023/01/20 05:53:13;;;;;;;11.43;9.15;;;;;;;5.84;81.95;99716.94;5583369;31;33883;-56
2023/01/20 05:56:15;;;;;;;13.02;9.13;;;;;;;5.60;75.53;99729.94;5583566;32;33695;-57
2023/01/20 05:59:18;;;;;;;12.10;9.02;;;;;;;5.57;83.24;99730.47;5582962;31;33595;-57
2023/01/20 06:02:20;;;;;;;11.77;8.57;;;;;;;5.65;88.61;99734.47;5581715;31;34219;-56
2023/01/20 06:05:23;;;;;;;12.48;10.05;;;;;;;5.55;81.30;99724.59;5581886;31;33683;-56
2023/01/20 06:08:25;;;;;;;11.95;8.43;;;;;;;5.91;99.41;99719.34;5582900;31;33431;-57
2023/01/20 06:11:28;;;;;;;12.88;9.35;;;;;;;6.03;88.34;99713.81;5573544;32;33630;-57
2023/01/20 06:14:30;;;;;;;13.55;9.50;;;;;;;6.12;82.73;99707.69;5569468;32;34322;-57
2023/01/20 06:17:32;;;;;;;13.27;9.05;;;;;;;6.25;80.34;99718.84;5569791;32;35212;-57
2023/01/20 06:20:34;;;;;;;12.45;9.20;;;;;;;5.84;85.56;99721.47;5558943;32;33700;-56
2023/01/20 06:23:37;;;;;;;13.40;9.25;;;;;;;5.82;81.55;99721.72;5565955;32;34282;-57
2023/01/20 06:26:39;;;;;;;11.98;9.25;;;;;;;5.84;79.67;99716.16;5568212;32;34309;-58
2023/01/20 06:29:42;;;;;;;13.57;9.23;;;;;;;5.86;80.83;99717.50;5568485;32;33660;-57
2023/01/20 06:32:46;;;;;;;13.15;9.40;;;;;;;5.66;78.04;99722.75;5568911;32;34225;-57
2023/01/20 06:35:53;;;;;;;14.25;9.50;;;;;;;6.03;83.38;99717.25;5569498;32;33914;-56
2023/01/20 06:38:55;;;;;;;13.45;9.52;;;;;;;5.71;78.92;99714.00;5568256;32;33730;-56
2023/01/20 06:41:58;;;;;;;13.48;9.88;;;;;;;6.09;100.00;99710.06;5568188;32;34422;-57
2023/01/20 06:45:01;;;;;;;14.00;10.10;;;;;;;6.08;94.28;99716.44;5569379;32;33724;-57
2023/01/20 06:48:03;;;;;;;13.13;9.57;;;;;;;6.38;100.00;99728.94;5569219;32;33184;-57
2023/01/20 06:51:16;;;;;;;12.85;8.77;;;;;;;6.38;90.30;99736.13;5569118;32;33700;-57
2023/01/20 06:54:19;;;;;;;15.23;10.25;;;;;;;6.32;79.39;99738.00;5569113;32;34299;-56
2023/01/20 06:57:21;;;;;;;13.88;10.27;;;;;;;6.20;94.10;99734.81;5569337;32;34376;-56
2023/01/20 07:00:24;;;;;;;11.48;8.77;;;;;;;5.87;81.02;99739.56;5568604;32;34388;-57
2023/01/20 07:03:26;;;;;;;13.52;9.70;;;;;;;5.89;86.97;99746.22;5569211;31;33595;-56
2023/01/20 07:06:31;;;;;;;15.98;9.43;;;;;;;6.17;81.44;99749.47;5569176;32;33698;-56
2023/01/20 07:09:33;;;;;;;12.45;9.15;;;;;;;6.23;80.43;99748.41;5569088;32;33277;-57
2023/01/20 07:12:36;;;;;;;12.43;9.20;;;;;;;6.09;79.86;99737.50;5568838;32;34591;-56
2023/01/20 07:15:38;;;;;;;13.07;9.43;;;;;;;6.11;81.27;99745.19;5567987;32;33761;-56
2023/01/20 07:18:42;;;;;;;13.05;9.48;;;;;;;6.38;84.71;99752.91;5569157;32;33747;-57
2023/01/20 07:21:45;;;;;;;13.57;9.60;;;;;;;6.06;78.91;99756.66;5568211;32;33691;-58
2023/01/20 07:24:47;;;;;;;13.32;9.30;;;;;;;6.34;85.42;99765.94;5567562;32;33670;-57
2023/01/20 07:27:49;;;;;;;12.85;8.50;;;;;;;6.42;89.21;99771.81;5569597;32;34418;-56
2023/01/20 07:30:52;;;;;;;13.07;8.75;;;;;;;6.26;78.03;99761.19;5569132;32;33593;-56
2023/01/20 07:33:55;;;;;;;15.27;9.63;;;;;;;6.04;92.92;99764.09;5567942;32;33746;-56
2023/01/20 07:37:00;;;;;;;12.02;8.50;;;;;;;6.56;89.27;99771.00;5559236;32;35161;-57
2023/01/20 07:40:03;;;;;;;13.90;8.48;;;;;;;6.11;79.36;99767.28;5568282;32;33121;-57
2023/01/20 07:43:05;;;;;;;13.25;9.18;;;;;;;5.89;78.32;99772.00;5567429;32;33596;-57
2023/01/20 07:46:07;;;;;;;11.98;8.68;;;;;;;5.83;81.54;99768.56;5567750;32;33727;-56
2023/01/20 07:49:10;;;;;;;12.02;8.93;;;;;;;5.64;89.29;99770.09;5568521;32;34333;-57
2023/01/20 07:52:13;;;;;;;14.38;9.85;;;;;;;6.11;91.14;99771.81;5567418;32;33544;-57
2023/01/20 07:55:15;;;;;;;13.60;8.98;;;;;;;6.08;89.09;99772.34;5565183;32;34350;-57
2023/01/20 07:58:18;;;;;;;15.45;9.68;;;;;;;6.15;85.31;99774.72;5566748;32;33575;-58
2023/01/20 08:01:27;;;;;;;13.38;9.80;;;;;;;6.51;100.00;99786.97;5566578;32;33722;-56
2023/01/20 08:04:29;;;;;;;12.63;8.88;;;;;;;6.73;94.39;99784.03;5566317;32;34430;-56
2023/01/20 08:07:32;;;;;;;13.02;8.60;;;;;;;6.75;84.67;99783.75;5563204;32;33216;-57
2023/01/20 08:10:36;;;;;;;14.48;9.90;;;;;;;6.33;85.23;99785.66;5566175;32;33652;-57
2023/01/20 08:13:39;;;;;;;14.23;9.88;;;;;;;6.21;79.17;99795.75;5568157;32;34255;-56
2023/01/20 08:16:42;;;;;;;13.60;9.45;;;;;;;6.60;100.00;99789.91;5568688;32;33740;-58
2023/01/20 08:19:44;;;;;;;12.60;9.02;;;;;;;6.87;85.91;99791.47;5568597;32;33133;-56
2023/01/20 08:22:48;;;;;;;11.52;8.55;;;;;;;6.79;91.07;99800.81;5568318;32;33920;-57
2023/01/20 08:25:58;;;;;;;13.82;9.30;;;;;;;7.01;94.65;99797.81;5563693;32;33670;-57
2023/01/20 08:29:04;;;;;;;12.23;8.48;;;;;;;6.43;76.24;99808.03;5548953;32;34348;-56
2023/01/20 08:32:06;;;;;;;13.30;9.25;;;;;;;6.16;76.64;99810.91;5548875;32;33510;-56
2023/01/20 08:35:09;;;;;;;12.35;8.45;;;;;;;5.92;77.89;99815.91;5561551;32;33821;-57
2023/01/20 08:38:11;;;;;;;13.05;8.60;;;;;;;6.02;76.63;99810.63;5568070;32;34208;-56
2023/01/20 08:41:22;;;;;;;13.18;9.40;;;;;;;5.92;77.23;99810.59;5567802;32;33646;-57
2023/01/20 08:44:24;;;;;;;11.85;8.77;;;;;;;5.82;76.46;99806.84;5568443;32;33731;-57
2023/01/20 08:47:26;;;;;;;13.93;8.70;;;;;;;5.64;77.91;99808.13;5564994;32;33681;-56
2023/01/20 08:50:28;;;;;;;16.42;9.60;;;;;;;5.71;77.91;99810.53;5559486;32;34126;-57
2023/01/20 08:53:32;;;;;;;12.15;9.00;;;;;;;5.71;77.12;99804.44;5548712;32;33657;-57
2023/01/20 08:56:35;;;;;;;14.50;9.93;;;;;;;5.88;79.95;99808.44;5558986;32;34376;-57
2023/01/20 08:59:38;;;;;;;12.20;8.85;;;;;;;5.80;78.62;99808.97;5567084;32;33519;-57
2023/01/20 09:02:41;;;;;;;13.68;9.15;;;;;;;5.78;78.66;99818.28;5568015;32;33601;-56
2023/01/20 09:05:45;;;;;;;12.27;8.98;;;;;;;5.67;77.40;99816.66;5567307;32;33226;-57
2023/01/20 09:08:49;;;;;;;13.62;9.45;;;;;;;5.70;77.59;99816.13;5565721;32;33653;-57
2023/01/20 09:11:51;;;;;;;12.55;8.88;;;;;;;5.67;77.30;99816.66;5567558;32;33979;-56
2023/01/20 09:14:53;;;;;;;14.70;10.02;;;;;;;5.96;87.04;99814.34;5567340;32;33762;-57
2023/01/20 09:17:57;;;;;;;13.35;8.75;;;;;;;5.86;77.41;99815.09;5566896;32;34284;-58
2023/01/20 09:21:01;;;;;;;12.52;9.05;;;;;;;6.07;78.84;99815.97;5567228;32;33645;-56
2023/01/20 09:24:04;;;;;;;12.68;8.75;;;;;;;6.11;77.25;99801.88;5567506;32;35125;-57
2023/01/20 09:27:06;;;;;;;12.73;9.05;;;;;;;5.98;75.81;99798.94;5555357;32;34324;-57
2023/01/20 09:30:09;;;;;;;15.20;10.15;;;;;;;5.71;76.71;99793.78;5566368;32;33591;-56
2023/01/20 09:33:12;;;;;;;13.57;9.45;;;;;;;5.71;77.17;99785.81;5566031;32;33732;-56
2023/01/20 09:36:14;;;;;;;15.35;9.43;;;;;;;5.65;78.75;99769.03;5566798;32;33670;-56
2023/01/20 09:47:19;;;;;;;12.60;9.23;;;;;;;5.67;75.80;99758.16;5566703;32;33651;-57
2023/01/20 09:54:01;;;;;;;12.23;8.45;;;;;;;6.20;87.50;99762.25;5568427;32;33810;-57
2023/01/20 09:57:06;;;;;;;12.10;9.30;;;;;;;5.97;75.64;99754.78;5567160;32;33631;-57
2023/01/20 10:00:17;;;;;;;13.23;9.07;;;;;;;5.97;76.79;99750.25;5560231;32;33691;-56
2023/01/20 10:03:28;;;;;;;13.07;8.60;;;;;;;5.95;75.91;99736.41;5556712;32;33631;-57
2023/01/20 10:06:39;;;;;;;15.73;9.75;;;;;;;5.90;76.28;99731.06;5550095;32;33686;-56
2023/01/20 10:09:57;;;;;;;12.45;9.23;;;;;;;5.93;75.50;99724.41;5564578;32;34356;-56
2023/01/20 10:13:35;;;;;;;14.55;9.40;;;;;;;5.75;76.88;99709.75;5566244;32;34302;-56
2023/01/20 10:17:10;;;;;;;11.88;8.77;;;;;;;5.95;92.03;99706.34;5550118;32;34301;-56
2023/01/20 10:20:35;;;;;;;13.05;8.65;;;;;;;5.77;76.44;99697.78;5555814;32;33671;-56
2023/01/20 10:23:59;;;;;;;11.07;8.10;;;;;;;6.04;87.08;99694.09;5549190;32;34407;-56
2023/01/20 10:27:03;;;;;;;10.18;7.50;;;;;;;5.70;75.98;99693.81;5566138;32;34315;-57
2023/01/20 10:30:09;;;;;;;12.48;8.38;;;;;;;5.80;74.62;99696.47;5566172;32;33426;-59
2023/01/20 10:33:20;;;;;;;11.52;8.25;;;;;;;5.80;74.28;99705.25;5566724;32;33676;-57
2023/01/20 10:36:28;;;;;;;11.38;7.87;;;;;;;5.96;77.38;99697.28;5568330;32;33608;-57
2023/01/20 10:39:37;;;;;;;;;;;;;;;6.10;75.06;99690.38;5568652;32;33644;-57
2023/01/20 10:42:40;;;;;;;12.07;7.72;;;;;;;6.09;72.64;99697.56;5568953;32;34010;-56
2023/01/20 10:45:48;;;;;;;11.90;7.97;;;;;;;6.12;76.98;99705.03;5563504;32;33659;-56
2023/01/20 10:49:19;;;;;;;13.43;9.15;;;;;;;6.34;88.94;99707.38;5566544;32;34414;-57
2023/01/20 10:52:49;;;;;;;12.95;8.35;;;;;;;6.61;82.41;99711.59;5561298;32;34325;-57
2023/01/20 10:56:04;;;;;;;12.70;8.85;;;;;;;6.87;93.78;99715.00;5562435;32;33736;-58
2023/01/20 10:59:13;;;;;;;13.00;9.05;;;;;;;6.91;91.46;99716.03;5564429;32;33659;-56
2023/01/20 11:02:26;;;;;;;11.43;8.57;;;;;;;6.87;72.03;99720.31;5557147;32;33770;-56
2023/01/20 11:05:36;;;;;;;14.05;8.55;;;;;;;6.73;71.41;99712.09;5566185;32;33839;-57
2023/01/20 11:08:38;;;;;;;13.05;8.55;;;;;;;6.64;70.64;99715.59;5554598;32;33661;-57
2023/01/20 11:11:40;;;;;;;12.90;8.45;;;;;;;6.64;72.11;99704.94;5560001;32;33337;-56
2023/01/20 11:14:44;;;;;;;12.73;8.32;;;;;;;6.54;70.70;99709.22;5562692;32;34385;-56
2023/01/20 11:18:12;;;;;;;11.20;7.65;;;;;;;6.45;70.18;99699.38;5568189;32;33869;-56
2023/01/20 11:21:23;;;;;;;9.93;7.40;;;;;;;6.31;70.15;99691.94;5565748;32;33735;-57
2023/01/20 11:24:42;;;;;;;11.30;8.00;;;;;;;6.19;71.90;99683.47;5566816;32;33746;-57
2023/01/20 11:27:45;;;;;;;13.95;8.43;;;;;;;6.15;72.61;99676.28;5567227;32;33129;-56
2023/01/20 11:30:53;;;;;;;9.82;7.75;;;;;;;6.29;73.00;99680.78;5568251;32;34286;-57
2023/01/20 11:33:59;;;;;;;11.07;7.97;;;;;;;6.25;73.12;99665.59;5560074;32;34392;-57
2023/01/20 11:37:01;;;;;;;13.90;8.53;;;;;;;6.25;73.73;99652.28;5567938;32;33687;-58
2023/01/20 11:40:26;;;;;;;12.80;7.35;;;;;;;6.23;76.63;99643.81;5566128;32;33175;-57
2023/01/20 11:43:36;;;;;;;12.00;8.68;;;;;;;6.62;87.03;99648.47;5568240;32;33791;-57
2023/01/20 11:46:39;;;;;;;13.00;8.57;;;;;;;6.85;91.07;99633.75;5566953;32;34379;-57
2023/01/20 11:49:41;;;;;;;12.30;7.53;;;;;;;6.76;82.68;99642.31;5568241;32;33632;-57
2023/01/20 11:52:46;;;;;;;12.05;7.15;;;;;;;7.29;99.71;99652.44;5567446;32;34328;-56
2023/01/20 11:56:00;;;;;;;9.25;6.12;;;;;;;7.00;74.15;99645.13;5565983;32;34369;-56
2023/01/20 11:59:03;;;;;;;9.60;6.65;;;;;;;6.74;80.52;99646.31;5561993;32;33773;-57
2023/01/20 12:02:08;;;;;;;11.15;6.60;;;;;;;6.72;87.55;99643.09;5568669;32;33197;-56
2023/01/20 12:05:24;;;;;;;9.48;7.10;;;;;;;7.27;90.68;99638.59;5568312;32;33788;-57
2023/01/20 12:08:36;;;;;;;8.93;6.40;;;;;;;7.11;90.02;99637.88;5563679;32;34221;-57
2023/01/20 12:11:51;;;;;;;8.65;6.22;;;;;;;6.80;75.93;99632.69;5567470;32;33664;-57
2023/01/20 12:15:13;;;;;;;10.32;7.00;;;;;;;7.01;87.79;99637.94;5567229;32;34217;-57
2023/01/20 12:18:25;;;;;;;9.32;6.95;;;;;;;6.93;78.73;99635.84;5560573;32;34376;-56
2023/01/20 12:21:34;;;;;;;10.75;7.07;;;;;;;6.49;82.86;99645.34;5556383;32;34313;-57
2023/01/20 12:25:07;;;;;;;10.25;6.95;;;;;;;6.77;98.59;99649.22;5567115;32;33756;-56
2023/01/20 12:28:34;;;;;;;11.55;7.37;;;;;;;6.73;81.92;99645.53;5567447;32;34284;-57
2023/01/20 12:31:36;;;;;;;9.18;7.32;;;;;;;6.08;77.60;99642.75;5538281;31;34439;-57
2023/01/20 12:34:39;;;;;;;11.10;8.02;;;;;;;5.77;78.58;99643.81;5565270;32;34438;-57
2023/01/20 12:37:54;;;;;;;10.43;7.72;;;;;;;5.55;79.98;99642.19;5558120;32;33136;-57
2023/01/20 12:41:06;;;;;;;11.82;8.52;;;;;;;5.64;79.93;99645.13;5566697;32;33778;-57
2023/01/20 12:44:49;;;;;;;10.05;7.68;;;;;;;5.85;88.80;99640.59;5566250;32;33685;-58
2023/01/20 12:48:04;;;;;;;11.07;7.62;;;;;;;6.48;100.00;99649.03;5567025;32;33789;-57
2023/01/20 12:51:41;;;;;;;9.95;7.72;;;;;;;6.06;82.11;99641.41;5568255;32;34308;-57
2023/01/20 12:54:43;;;;;;;10.85;7.40;;;;;;;5.81;80.80;99645.66;5568017;32;34287;-56
2023/01/20 12:58:09;;;;;;;13.05;8.73;;;;;;;5.93;83.13;99639.28;5567926;32;34358;-56
2023/01/20 13:01:33;;;;;;;15.38;9.38;;;;;;;5.77;84.79;99657.91;5554590;32;34331;-57
2023/01/20 13:05:03;;;;;;;13.85;9.50;;;;;;;5.68;83.06;99658.69;5547964;32;33249;-56
2023/01/20 13:08:11;;;;;;;14.25;9.30;;;;;;;5.40;82.44;99666.13;5548458;32;33309;-56
2023/01/20 13:11:32;;;;;;;14.00;9.85;;;;;;;5.24;82.74;99673.25;5548094;32;34425;-56
2023/01/20 13:14:43;;;;;;;16.05;10.27;;;;;;;4.79;85.36;99673.87;5548495;32;33335;-57
2023/01/20 13:18:05;;;;;;;14.98;10.57;;;;;;;4.84;86.41;99685.31;5548287;32;33975;-56
2023/01/20 13:21:15;;;;;;;15.18;10.48;;;;;;;5.04;89.93;99679.28;5548720;32;33723;-56
2023/01/20 13:24:28;;;;;;;16.20;10.68;;;;;;;4.82;85.48;99678.66;5550797;32;33716;-57
2023/01/20 13:27:35;;;;;;;14.40;9.45;;;;;;;4.86;89.36;99683.19;5550487;32;33670;-57
2023/01/20 13:30:52;;;;;;;16.42;10.80;;;;;;;4.88;87.99;99681.09;5550840;32;34476;-56
2023/01/20 13:34:21;;;;;;;13.85;9.45;;;;;;;4.81;86.16;99675.22;5564454;32;33704;-56
2023/01/20 13:37:28;;;;;;;12.65;9.00;;;;;;;4.79;86.32;99679.19;5569207;32;34427;-57
2023/01/20 13:40:36;;;;;;;11.93;8.38;;;;;;;4.85;85.54;99678.94;5562347;32;33755;-56
2023/01/20 13:43:41;;;;;;;12.57;9.10;;;;;;;4.79;86.24;99679.97;5569731;32;33312;-56
2023/01/20 13:46:45;;;;;;;12.55;8.73;;;;;;;4.88;85.99;99678.44;5569657;32;33831;-56
2023/01/20 13:49:49;;;;;;;11.90;7.93;;;;;;;4.85;87.98;99675.50;5569766;32;33740;-57
2023/01/20 13:52:51;;;;;;;14.02;9.13;;;;;;;4.70;85.69;99670.91;5569880;32;33931;-56
2023/01/20 13:55:56;;;;;;;13.82;8.15;;;;;;;4.83;88.15;99673.09;5569971;32;33615;-56
2023/01/20 13:58:59;;;;;;;13.80;8.52;;;;;;;4.84;89.03;99679.22;5569464;32;33699;-57
2023/01/20 14:02:16;;;;;;;12.27;8.05;;;;;;;4.87;89.62;99676.06;5569941;32;33717;-56
2023/01/20 14:05:24;;;;;;;13.25;9.75;;;;;;;4.84;86.85;99687.19;5567448;32;33693;-58
2023/01/20 14:08:29;;;;;;;12.90;8.93;;;;;;;5.24;94.22;99701.69;5551863;32;33668;-58
2023/01/20 14:11:32;;;;;;;14.98;10.20;;;;;;;5.16;86.34;99697.66;5550434;32;34324;-57
2023/01/20 14:14:40;;;;;;;16.08;11.12;;;;;;;5.41;100.00;99708.38;5550197;32;33629;-57
2023/01/20 14:17:52;;;;;;;14.50;10.70;;;;;;;5.26;84.09;99707.50;5550338;32;33673;-57
2023/01/20 14:20:59;;;;;;;14.87;10.65;;;;;;;5.12;83.71;99704.56;5550280;32;33736;-56
2023/01/20 14:24:05;;;;;;;17.30;12.40;;;;;;;4.97;85.95;99705.31;5550474;32;34251;-56
2023/01/20 14:27:15;;;;;;;17.67;12.00;;;;;;;5.34;99.97;99715.78;5550039;32;33688;-58
2023/01/20 14:30:20;;;;;;;19.27;14.80;;;;;;;5.28;87.79;99702.75;5550449;32;33599;-57
2023/01/20 14:33:22;;;;;;;19.45;14.50;;;;;;;5.27;90.52;99701.16;5549194;32;33696;-57
2023/01/20 14:36:29;;;;;;;19.73;14.50;;;;;;;5.20;88.41;99701.41;5549549;32;34391;-56
2023/01/20 14:39:32;;;;;;;22.58;16.15;;;;;;;5.37;86.00;99709.97;5549445;32;33936;-57
2023/01/20 14:42:35;;;;;;;22.48;16.80;;;;;;;5.22;84.68;99712.56;5549672;32;33770;-56
2023/01/20 14:45:42;;;;;;;22.30;16.25;;;;;;;5.24;85.18;99710.44;5549688;32;33819;-56
2023/01/20 14:48:45;;;;;;;28.67;16.90;;;;;;;5.28;84.53;99718.69;5549815;32;33288;-56
2023/01/20 14:51:49;;;;;;;24.37;16.90;;;;;;;5.02;87.54;99717.78;5550240;32;34346;-58
2023/01/20 14:54:55;;;;;;;20.90;14.60;;;;;;;4.99;87.12;99718.31;5549844;32;33748;-56
2023/01/20 14:57:57;;;;;;;20.45;14.48;;;;;;;5.02;84.77;99718.59;5550030;32;33861;-57
2023/01/20 15:01:02;;;;;;;23.70;16.02;;;;;;;4.89;89.57;99725.16;5549662;32;33604;-56
2023/01/20 15:04:05;;;;;;;24.23;17.00;;;;;;;5.21;100.00;99728.78;5550120;32;33381;-57
2023/01/20 15:07:18;;;;;;;19.42;14.70;;;;;;;4.97;88.57;99723.91;5549997;32;33654;-57
2023/01/20 15:10:20;;;;;;;20.80;15.20;;;;;;;5.13;84.62;99728.22;5550272;32;33839;-56
2023/01/20 15:13:26;;;;;;;20.12;15.15;;;;;;;4.79;89.70;99734.94;5549817;32;34220;-57
2023/01/20 15:16:42;;;;;;;23.30;15.98;;;;;;;5.01;93.01;99738.25;5550071;32;34227;-56
2023/01/20 15:19:45;;;;;;;21.27;16.00;;;;;;;4.77;93.65;99737.06;5549810;32;34442;-56
2023/01/20 15:22:47;;;;;;;23.00;16.17;;;;;;;4.99;100.00;99753.62;5549757;32;33732;-56
2023/01/20 15:25:51;;;;;;;21.83;16.45;;;;;;;5.07;100.00;99747.84;5549691;32;33769;-56
2023/01/20 15:28:54;;;;;;;19.77;14.80;;;;;;;4.89;91.97;99753.59;5557358;32;34446;-57
2023/01/20 15:32:00;;;;;;;20.00;15.00;;;;;;;4.88;100.00;99750.13;5569409;32;33429;-57
2023/01/20 15:35:02;;;;;;;20.10;13.68;;;;;;;5.01;93.46;99753.41;5569054;32;34296;-56
2023/01/20 15:38:10;;;;;;;21.02;14.70;;;;;;;5.06;85.27;99756.06;5569190;32;33744;-56
2023/01/20 15:41:13;;;;;;;22.08;14.93;;;;;;;4.95;97.46;99755.22;5568247;32;33698;-56
2023/01/20 15:44:15;;;;;;;18.55;13.52;;;;;;;5.08;98.52;99767.25;5568235;32;34319;-57
2023/01/20 15:47:20;;;;;;;19.50;13.75;;;;;;;4.99;94.93;99761.59;5568978;32;33880;-57
2023/01/20 15:50:23;;;;;;;18.42;13.80;;;;;;;4.73;91.40;99758.00;5569358;32;33767;-56
2023/01/20 15:53:25;;;;;;;19.05;13.75;;;;;;;4.92;100.00;99761.03;5569003;32;34422;-58
2023/01/20 15:56:29;;;;;;;18.85;13.25;;;;;;;4.90;95.48;99769.28;5569143;32;34022;-57
2023/01/20 15:59:31;;;;;;;19.33;13.65;;;;;;;4.72;93.02;99767.84;5569005;32;33767;-57
2023/01/20 16:02:34;;;;;;;17.65;12.85;;;;;;;4.59;91.10;99762.97;5569024;32;34335;-57
2023/01/20 16:05:36;;;;;;;18.33;13.65;;;;;;;4.65;86.49;99761.16;5567695;31;33261;-58
2023/01/20 16:08:41;;;;;;;15.48;12.50;;;;;;;4.70;100.00;99777.09;5568339;32;34404;-57
2023/01/20 16:11:43;;;;;;;18.67;13.68;;;;;;;4.65;92.06;99777.88;5569206;32;33479;-57
2023/01/20 16:14:45;;;;;;;19.65;15.15;;;;;;;4.79;100.00;99785.41;5568943;32;33845;-56
2023/01/20 16:17:50;;;;;;;18.55;13.05;;;;;;;4.67;91.19;99777.66;5568645;32;33642;-57
2023/01/20 16:20:52;;;;;;;16.33;12.27;;;;;;;4.76;89.73;99781.41;5568623;32;34394;-57
2023/01/20 16:23:54;;;;;;;14.98;11.85;;;;;;;4.78;91.60;99765.22;5568648;32;34426;-57
2023/01/20 16:26:56;;;;;;;18.45;12.52;;;;;;;4.62;84.57;99764.31;5568266;32;34340;-56
2023/01/20 16:29:59;;;;;;;17.20;12.88;;;;;;;4.55;88.05;99761.88;5568426;32;34290;-57
2023/01/20 16:33:01;;;;;;;17.62;12.70;;;;;;;4.55;88.44;99755.78;5568426;32;33871;-57
2023/01/20 16:36:09;;;;;;;17.77;12.88;;;;;;;4.44;86.47;99768.19;5568579;32;34308;-56
2023/01/20 16:39:11;;;;;;;18.35;12.70;;;;;;;4.51;83.77;99752.03;5568412;32;33769;-56
2023/01/20 16:42:14;;;;;;;19.10;13.95;;;;;;;4.68;96.93;99750.81;5568349;32;34342;-56
